Time;durP1;ratioP1;P1;durP2;ratioP2;P2;SDS_P1;SDS_P2;PMS_P1;PMS_P2;Temp;Humidity;BMP_temperature;BMP_pressure;BME280_temperature;BME280_humidity;BME280_pressure;Samples;Min_cycle;Max_cycle;Signal;HPM_P1;HPM_P2
2023/06/02 00:01:17;;;;;;;;;;;;;;;13.28;58.02;102143.31;4961228;28;20536;-71
2023/06/02 00:03:44;;;;;;;;;;;;;;;13.22;57.74;102141.28;4968639;28;19914;-71
2023/06/02 00:06:10;;;;;;;;;;;;;;;13.17;57.90;102138.25;4958526;28;19974;-71
2023/06/02 00:08:40;;;;;;;;;;;;;;;13.13;57.67;102138.69;4955996;28;19918;-70
2023/06/02 00:11:06;;;;;;;;;;;;;;;13.10;57.62;102141.69;4951286;28;19933;-71
2023/06/02 00:13:31;;;;;;;;;;;;;;;13.07;57.53;102144.66;4957465;28;19922;-71
2023/06/02 00:15:56;;;;;;;;;;;;;;;13.04;57.49;102145.81;4951218;28;19919;-71
2023/06/02 00:18:24;;;;;;;;;;;;;;;13.02;57.58;102135.28;4954350;28;19922;-71
2023/06/02 00:20:50;;;;;;;;;;;;;;;13.00;57.52;102131.91;4949621;28;19945;-71
2023/06/02 00:23:15;;;;;;;;;;;;;;;12.99;57.60;102132.91;4952715;28;20408;-71
2023/06/02 00:25:40;;;;;;;;;;;;;;;13.00;57.48;102136.41;4960301;28;20009;-71
2023/06/02 00:28:05;;;;;;;;;;;;;;;12.97;57.17;102137.56;4955347;28;19980;-71
2023/06/02 00:30:31;;;;;;;;;;;;;;;12.95;57.52;102136.03;4952774;28;20392;-71
2023/06/02 00:32:56;;;;;;;;;;;;;;;12.94;57.63;102131.69;4956016;28;19978;-71
2023/06/02 00:35:22;;;;;;;;;;;;;;;12.94;57.54;102132.53;4965046;28;19960;-71
2023/06/02 00:37:47;;;;;;;;;;;;;;;12.95;57.49;102133.38;4957580;28;20288;-71
2023/06/02 00:40:12;;;;;;;;;;;;;;;12.94;57.58;102131.69;4946595;28;20012;-70
2023/06/02 00:42:38;;;;;;;;;;;;;;;12.94;57.43;102126.38;4947150;28;19918;-71
2023/06/02 00:45:03;;;;;;;;;;;;;;;12.93;57.47;102130.88;4941104;28;20400;-71
2023/06/02 00:47:28;;;;;;;;;;;;;;;12.93;57.46;102124.69;4954166;28;19921;-71
2023/06/02 00:49:53;;;;;;;;;;;;;;;12.91;57.52;102129.34;4947154;28;20396;-70
2023/06/02 00:52:19;;;;;;;;;;;;;;;12.89;57.30;102128.66;4944228;28;19931;-71
2023/06/02 00:54:44;;;;;;;;;;;;;;;12.89;57.16;102128.66;4948086;28;20458;-71
2023/06/02 00:57:09;;;;;;;;;;;;;;;12.88;57.26;102129.66;4944762;28;20503;-70
2023/06/02 00:59:36;;;;;;;;;;;;;;;12.89;57.40;102134.00;4949874;28;19918;-71
2023/06/02 01:02:01;;;;;;;;;;;;;;;12.87;57.44;102126.16;4951447;28;19977;-70
2023/06/02 01:04:26;;;;;;;;;;;;;;;12.88;57.15;102127.00;4954925;28;19922;-71
2023/06/02 01:06:52;;;;;;;;;;;;;;;12.87;57.38;102130.66;4945873;28;19950;-71
2023/06/02 01:09:18;;;;;;;;;;;;;;;12.86;57.19;102127.16;4962453;28;19940;-71
2023/06/02 01:11:43;;;;;;;;;;;;;;;12.84;57.44;102120.31;4951566;28;20531;-70
2023/06/02 01:14:09;;;;;;;;;;;;;;;12.81;57.27;102128.59;4942973;28;19919;-71
2023/06/02 01:16:35;;;;;;;;;;;;;;;12.81;57.20;102125.94;4950832;28;19915;-70
2023/06/02 01:19:00;;;;;;;;;;;;;;;12.81;57.32;102123.28;4946797;28;19923;-70
2023/06/02 01:21:28;;;;;;;;;;;;;;;12.79;57.60;102123.44;4943556;29;19950;-71
2023/06/02 01:23:54;;;;;;;;;;;;;;;12.79;57.58;102128.75;4952147;28;19973;-71
2023/06/02 01:26:19;;;;;;;;;;;;;;;12.76;57.73;102113.06;4958940;28;19918;-71
2023/06/02 01:28:45;;;;;;;;;;;;;;;12.73;57.79;102123.22;4950325;28;19974;-71
2023/06/02 01:31:17;;;;;;;;;;;;;;;12.70;57.76;102122.50;4951495;28;19977;-71
2023/06/02 01:33:52;;;;;;;;;;;;;;;12.69;57.99;102117.31;4952458;28;19958;-71
2023/06/02 01:36:20;;;;;;;;;;;;;;;12.68;57.80;102116.50;4949437;28;20279;-71
2023/06/02 01:38:46;;;;;;;;;;;;;;;12.69;57.84;102112.00;4948110;28;19918;-71
2023/06/02 01:41:13;;;;;;;;;;;;;;;12.70;58.15;102114.50;4947226;28;19973;-71
2023/06/02 01:43:39;;;;;;;;;;;;;;;12.74;58.24;102119.56;4945242;28;20055;-71
2023/06/02 01:46:05;;;;;;;;;;;;;;;12.76;58.06;102117.56;4946912;28;19914;-71
2023/06/02 01:48:30;;;;;;;;;;;;;;;12.79;57.81;102112.75;4940636;29;19929;-71
2023/06/02 01:50:55;;;;;;;;;;;;;;;12.82;58.21;102120.44;4955867;28;19919;-71
2023/06/02 01:53:21;;;;;;;;;;;;;;;12.84;58.23;102114.97;4950746;28;20336;-71
2023/06/02 01:55:49;;;;;;;;;;;;;;;12.84;58.06;102121.13;4957993;28;20233;-71
2023/06/02 01:58:14;;;;;;;;;;;;;;;12.85;57.87;102121.97;4947195;28;20979;-72
2023/06/02 02:00:39;;;;;;;;;;;;;;;12.87;58.13;102114.66;4956138;28;19969;-71
2023/06/02 02:03:07;;;;;;;;;;;;;;;12.87;58.23;102115.50;4950258;28;19969;-71
2023/06/02 02:05:33;;;;;;;;;;;;;;;12.88;58.32;102122.50;4956917;28;19946;-71
2023/06/02 02:07:58;;;;;;;;;;;;;;;12.88;58.10;102116.31;4957201;28;19965;-71
2023/06/02 02:10:23;;;;;;;;;;;;;;;12.86;57.96;102119.16;4959756;28;19918;-71
2023/06/02 02:12:48;;;;;;;;;;;;;;;12.83;58.45;102121.28;4949824;28;19937;-71
2023/06/02 02:15:14;;;;;;;;;;;;;;;12.83;58.41;102126.63;4956902;28;20017;-71
2023/06/02 02:17:44;;;;;;;;;;;;;;;12.82;58.75;102117.78;4946402;28;19968;-71
2023/06/02 02:20:10;;;;;;;;;;;;;;;12.82;58.50;102116.94;4953621;28;19922;-71
2023/06/02 02:22:35;;;;;;;;;;;;;;;12.80;58.44;102118.94;4951114;28;19914;-71
2023/06/02 02:25:00;;;;;;;;;;;;;;;12.80;58.40;102118.94;4960908;28;19941;-71
2023/06/02 02:27:26;;;;;;;;;;;;;;;12.79;58.66;102122.59;4959079;28;20008;-71
2023/06/02 02:29:51;;;;;;;;;;;;;;;12.78;58.65;102124.41;4953031;28;19921;-71
2023/06/02 02:32:16;;;;;;;;;;;;;;;12.79;58.80;102114.59;4948962;28;19922;-72
2023/06/02 02:34:41;;;;;;;;;;;;;;;12.81;58.63;102123.28;4955001;28;19922;-72
2023/06/02 02:37:10;;;;;;;;;;;;;;;12.82;58.74;102122.28;4960041;28;20403;-71
2023/06/02 02:39:35;;;;;;;;;;;;;;;12.82;59.15;102120.44;4947819;28;19914;-71
2023/06/02 02:42:01;;;;;;;;;;;;;;;12.79;59.46;102123.44;4945500;28;20315;-71
2023/06/02 02:44:26;;;;;;;;;;;;;;;12.73;59.20;102117.88;4950361;28;19926;-71
2023/06/02 02:46:51;;;;;;;;;;;;;;;12.70;59.33;102122.50;4946176;28;19941;-72
2023/06/02 02:49:16;;;;;;;;;;;;;;;12.69;59.07;102118.16;4952631;28;19919;-71
2023/06/02 02:51:41;;;;;;;;;;;;;;;12.67;59.06;102119.31;4957906;28;20399;-70
2023/06/02 02:54:06;;;;;;;;;;;;;;;12.66;58.84;102125.63;4949949;28;19919;-71
2023/06/02 02:56:32;;;;;;;;;;;;;;;12.64;59.01;102111.63;4955664;28;20360;-71
2023/06/02 02:59:00;;;;;;;;;;;;;;;12.64;59.07;102119.63;4944689;28;19958;-71
2023/06/02 03:01:26;;;;;;;;;;;;;;;12.64;58.84;102119.63;4942217;28;19914;-71
2023/06/02 03:03:52;;;;;;;;;;;;;;;12.63;58.48;102118.78;4948651;28;19918;-71
2023/06/02 03:06:18;;;;;;;;;;;;;;;12.60;58.45;102124.41;4945580;28;19925;-71
2023/06/02 03:08:43;;;;;;;;;;;;;;;12.56;58.77;102125.72;4942896;28;19918;-71
2023/06/02 03:11:09;;;;;;;;;;;;;;;12.53;58.36;102115.38;4939323;28;20394;-71
2023/06/02 03:13:34;;;;;;;;;;;;;;;12.52;58.47;102119.03;4951083;28;19931;-71
2023/06/02 03:16:00;;;;;;;;;;;;;;;12.54;58.48;102124.19;4954862;28;20599;-71
2023/06/02 03:18:25;;;;;;;;;;;;;;;12.52;58.50;102124.34;4950927;28;19922;-71
2023/06/02 03:20:51;;;;;;;;;;;;;;;12.52;58.36;102137.66;4940216;28;20303;-71
2023/06/02 03:23:17;;;;;;;;;;;;;;;12.50;58.12;102133.47;4949667;28;19941;-71
2023/06/02 03:25:43;;;;;;;;;;;;;;;12.46;58.48;102132.94;4947647;28;20327;-71
2023/06/02 03:28:08;;;;;;;;;;;;;;;12.45;58.55;102133.94;4955679;28;19931;-71
2023/06/02 03:30:33;;;;;;;;;;;;;;;12.44;58.80;102129.59;4938290;28;19922;-71
2023/06/02 03:32:58;;;;;;;;;;;;;;;12.42;59.04;102131.56;4957194;28;20009;-70
2023/06/02 03:35:23;;;;;;;;;;;;;;;12.39;59.08;102132.69;4948385;28;19961;-71
2023/06/02 03:37:49;;;;;;;;;;;;;;;12.38;58.98;102140.84;4956762;28;19925;-71
2023/06/02 03:40:14;;;;;;;;;;;;;;;12.36;58.97;102138.31;4952652;28;19918;-71
2023/06/02 03:42:39;;;;;;;;;;;;;;;12.33;58.92;102135.97;4955993;28;19923;-71
2023/06/02 03:45:05;;;;;;;;;;;;;;;12.29;58.85;102139.09;4949960;28;21819;-71
2023/06/02 03:47:30;;;;;;;;;;;;;;;12.25;58.53;102137.72;4948276;28;19922;-70
2023/06/02 03:49:55;;;;;;;;;;;;;;;12.21;58.68;102139.84;4945744;28;19919;-70
2023/06/02 03:52:20;;;;;;;;;;;;;;;12.18;58.71;102144.63;4952452;28;20507;-71
2023/06/02 03:54:47;;;;;;;;;;;;;;;12.17;58.63;102148.28;4940164;28;20009;-69
2023/06/02 03:57:12;;;;;;;;;;;;;;;12.10;58.65;102132.03;4942262;28;19953;-71
2023/06/02 03:59:37;;;;;;;;;;;;;;;12.17;58.90;102140.28;4955650;28;19961;-71
2023/06/02 04:02:03;;;;;;;;;;;;;;;12.16;58.59;102143.94;4944202;28;20597;-71
2023/06/02 04:04:28;;;;;;;;;;;;;;;12.15;58.60;102144.94;4953212;28;19973;-71
2023/06/02 04:06:53;;;;;;;;;;;;;;;12.14;58.72;102143.22;4948365;28;20406;-72
2023/06/02 04:09:18;;;;;;;;;;;;;;;12.12;58.86;102148.69;4955445;28;19926;-71
2023/06/02 04:11:43;;;;;;;;;;;;;;;12.13;58.85;102146.88;4936681;28;19930;-71
2023/06/02 04:14:09;;;;;;;;;;;;;;;12.12;58.65;102147.88;4958562;28;20020;-71
2023/06/02 04:16:34;;;;;;;;;;;;;;;12.09;58.75;102152.50;4954685;28;20321;-71
2023/06/02 04:18:59;;;;;;;;;;;;;;;12.06;59.12;102152.81;4954167;28;19919;-70
2023/06/02 04:21:25;;;;;;;;;;;;;;;12.06;59.00;102159.94;4952722;28;20012;-71
2023/06/02 04:23:50;;;;;;;;;;;;;;;12.02;59.11;102151.41;4954730;28;19922;-71
2023/06/02 04:26:16;;;;;;;;;;;;;;;12.02;59.10;102161.22;4955331;28;19975;-71
2023/06/02 04:28:41;;;;;;;;;;;;;;;11.99;59.33;102154.38;4954486;28;19918;-71
2023/06/02 04:31:06;;;;;;;;;;;;;;;11.98;58.90;102152.72;4953188;28;19934;-70
2023/06/02 04:33:32;;;;;;;;;;;;;;;11.97;59.20;102151.03;4959155;28;19919;-71
2023/06/02 04:35:57;;;;;;;;;;;;;;;12.00;59.18;102155.22;4950939;28;20360;-71
2023/06/02 04:38:23;;;;;;;;;;;;;;;11.99;59.24;102154.38;4954561;28;19925;-71
2023/06/02 04:40:48;;;;;;;;;;;;;;;11.98;59.11;102152.72;4945429;28;20360;-71
2023/06/02 04:43:14;;;;;;;;;;;;;;;11.96;59.02;102152.03;4943650;28;20009;-71
2023/06/02 04:45:43;;;;;;;;;;;;;;;11.96;59.17;102143.19;4954883;28;20008;-70
2023/06/02 04:48:08;;;;;;;;;;;;;;;11.95;59.21;102150.34;4933966;28;20476;-71
2023/06/02 04:50:33;;;;;;;;;;;;;;;11.93;59.46;102146.16;4955067;28;19922;-71
2023/06/02 04:52:58;;;;;;;;;;;;;;;11.93;59.54;102149.66;4953006;28;19935;-70
2023/06/02 04:55:24;;;;;;;;;;;;;;;11.95;59.12;102150.34;4955676;28;19914;-71
2023/06/02 04:57:49;;;;;;;;;;;;;;;11.97;59.49;102156.34;4939962;28;19933;-70
2023/06/02 05:00:14;;;;;;;;;;;;;;;11.99;59.57;102157.03;4962838;28;19925;-71
2023/06/02 05:02:39;;;;;;;;;;;;;;;11.99;59.29;102157.03;4954230;28;20452;-71
2023/06/02 05:05:06;;;;;;;;;;;;;;;12.01;59.42;102154.25;4962203;28;19925;-70
2023/06/02 05:07:32;;;;;;;;;;;;;;;12.02;59.33;102158.56;4946542;28;19934;-71
2023/06/02 05:09:57;;;;;;;;;;;;;;;12.03;59.23;102165.56;4945966;28;19925;-70
2023/06/02 05:12:22;;;;;;;;;;;;;;;12.05;59.57;102159.13;4942077;28;20551;-71
2023/06/02 05:14:47;;;;;;;;;;;;;;;12.07;59.32;102157.13;4966547;28;19914;-70
2023/06/02 05:17:13;;;;;;;;;;;;;;;12.11;59.84;102168.31;4953265;28;19950;-71
2023/06/02 05:19:45;;;;;;;;;;;;;;;12.16;59.43;102162.59;4954500;28;19918;-71
2023/06/02 05:22:10;;;;;;;;;;;;;;;12.19;59.35;102164.94;4952356;28;19929;-71
2023/06/02 05:24:35;;;;;;;;;;;;;;;12.20;59.37;102170.13;4949525;28;19922;-71
2023/06/02 05:27:00;;;;;;;;;;;;;;;12.21;59.33;102173.63;4952630;28;19926;-71
2023/06/02 05:29:25;;;;;;;;;;;;;;;12.23;59.40;102167.16;4946309;28;19946;-70
2023/06/02 05:31:51;;;;;;;;;;;;;;;12.26;59.76;102164.19;4936677;28;19926;-70
2023/06/02 05:34:16;;;;;;;;;;;;;;;12.26;59.45;102174.84;4942801;28;20384;-70
2023/06/02 05:36:41;;;;;;;;;;;;;;;12.26;59.19;102180.19;4947870;28;19986;-70
2023/06/02 05:39:06;;;;;;;;;;;;;;;12.26;59.33;102174.00;4942507;28;20415;-70
2023/06/02 05:41:32;;;;;;;;;;;;;;;12.24;59.34;102183.97;4952216;28;19914;-70
2023/06/02 05:43:57;;;;;;;;;;;;;;;12.21;59.51;102174.47;4945993;28;19919;-70
2023/06/02 05:46:23;;;;;;;;;;;;;;;12.21;59.48;102171.81;4949309;28;19946;-70
2023/06/02 05:48:48;;;;;;;;;;;;;;;12.20;59.42;102180.78;4956815;28;19924;-70
2023/06/02 05:51:13;;;;;;;;;;;;;;;12.17;59.05;102172.25;4949584;28;20000;-70
2023/06/02 05:53:38;;;;;;;;;;;;;;;12.14;59.41;102172.50;4953742;28;20037;-70
2023/06/02 05:56:04;;;;;;;;;;;;;;;12.13;58.96;102176.16;4944152;28;20407;-70
2023/06/02 05:58:29;;;;;;;;;;;;;;;12.12;59.03;102175.34;4948335;28;19949;-70
2023/06/02 06:00:55;;;;;;;;;;;;;;;12.11;58.83;102176.31;4952462;28;20005;-70
2023/06/02 06:03:20;;;;;;;;;;;;;;;12.10;59.17;102174.63;4952131;28;20426;-71
2023/06/02 06:05:45;;;;;;;;;;;;;;;12.10;58.89;102175.47;4946146;28;19922;-71
2023/06/02 06:08:10;;;;;;;;;;;;;;;12.10;59.02;102179.97;4948471;28;20283;-70
2023/06/02 06:10:35;;;;;;;;;;;;;;;11.97;58.88;102158.19;4939751;28;20398;-70
2023/06/02 06:13:01;;;;;;;;;;;;;;;12.10;58.83;102177.31;4949694;28;19933;-71
2023/06/02 06:15:26;;;;;;;;;;;;;;;12.13;58.94;102173.50;4953746;28;20017;-70
2023/06/02 06:17:52;;;;;;;;;;;;;;;12.16;58.72;102176.75;4956473;28;20392;-70
2023/06/02 06:20:18;;;;;;;;;;;;;;;12.21;58.65;102177.13;4949725;28;19918;-70
2023/06/02 06:22:43;;;;;;;;;;;;;;;12.24;58.73;102170.66;4956752;28;19918;-70
2023/06/02 06:25:12;;;;;;;;;;;;;;;12.25;58.88;102177.66;4946567;28;19918;-70
2023/06/02 06:27:37;;;;;;;;;;;;;;;12.29;58.68;102176.38;4944874;28;19922;-71
2023/06/02 06:30:04;;;;;;;;;;;;;;;12.32;58.92;102181.41;4939965;28;19937;-71
2023/06/02 06:32:29;;;;;;;;;;;;;;;12.36;58.55;102180.94;4951905;28;19929;-71
2023/06/02 06:34:54;;;;;;;;;;;;;;;12.41;58.88;102191.16;4949962;28;19926;-71
2023/06/02 06:37:19;;;;;;;;;;;;;;;12.40;58.55;102184.97;4954123;28;19945;-70
2023/06/02 06:39:44;;;;;;;;;;;;;;;12.42;58.61;102179.50;4945024;28;19992;-70
2023/06/02 06:42:10;;;;;;;;;;;;;;;12.46;58.31;102178.25;4940512;28;20021;-71
2023/06/02 06:44:35;;;;;;;;;;;;;;;12.53;58.67;102187.31;4938493;28;19945;-71
2023/06/02 06:47:00;;;;;;;;;;;;;;;12.60;58.64;102183.03;4954570;28;19922;-71
2023/06/02 06:49:25;;;;;;;;;;;;;;;12.64;58.42;102188.91;4941066;28;19929;-71
2023/06/02 06:51:50;;;;;;;;;;;;;;;12.66;58.35;102182.44;4953009;28;19926;-71
2023/06/02 06:54:16;;;;;;;;;;;;;;;12.70;58.15;102189.13;4949360;28;20017;-70
2023/06/02 06:56:43;;;;;;;;;;;;;;;12.73;58.03;102180.03;4945885;28;19918;-71
2023/06/02 06:59:08;;;;;;;;;;;;;;;12.76;57.71;102174.38;4947807;28;19918;-71
2023/06/02 07:01:33;;;;;;;;;;;;;;;12.79;57.79;102178.56;4953944;28;19965;-71
2023/06/02 07:03:58;;;;;;;;;;;;;;;12.80;57.91;102173.09;4947619;28;19919;-71
2023/06/02 07:06:23;;;;;;;;;;;;;;;12.85;57.75;102178.78;4951884;28;19924;-71
2023/06/02 07:08:49;;;;;;;;;;;;;;;12.92;58.00;102169.19;4948500;28;19928;-72
2023/06/02 07:11:14;;;;;;;;;;;;;;;12.97;57.87;102176.72;4948041;28;19918;-71
2023/06/02 07:13:40;;;;;;;;;;;;;;;13.02;57.92;102172.63;4956055;28;20340;-73
2023/06/02 07:16:05;;;;;;;;;;;;;;;13.06;57.75;102178.50;4948174;28;19978;-71
2023/06/02 07:18:30;;;;;;;;;;;;;;;13.13;58.11;102176.88;4950021;28;20649;-72
2023/06/02 07:20:55;;;;;;;;;;;;;;;13.19;57.84;102178.09;4954444;28;19950;-71
2023/06/02 07:23:20;;;;;;;;;;;;;;;13.24;57.69;102181.16;4957216;28;19982;-71
2023/06/02 07:25:46;;;;;;;;;;;;;;;13.28;57.32;102180.69;4929480;29;19915;-71
2023/06/02 07:28:11;;;;;;;;;;;;;;;13.33;57.29;102189.06;4939495;28;19946;-71
2023/06/02 07:30:36;;;;;;;;;;;;;;;13.37;57.16;102192.25;4946848;28;19915;-72
2023/06/02 07:33:01;;;;;;;;;;;;;;;13.38;57.24;102180.59;4944678;28;19981;-72
2023/06/02 07:35:26;;;;;;;;;;;;;;;13.31;57.19;102196.41;4942158;28;20312;-71
2023/06/02 07:37:52;;;;;;;;;;;;;;;13.34;57.14;102192.59;4953390;28;19929;-72
2023/06/02 07:40:17;;;;;;;;;;;;;;;13.41;57.33;102198.97;4949493;28;19919;-71
2023/06/02 07:42:43;;;;;;;;;;;;;;;13.41;56.69;102198.13;4951162;28;20012;-72
2023/06/02 07:45:08;;;;;;;;;;;;;;;13.44;56.56;102190.63;4953739;28;19918;-72
2023/06/02 07:47:33;;;;;;;;;;;;;;;13.50;56.55;102187.34;4951536;28;20009;-72
2023/06/02 07:49:58;;;;;;;;;;;;;;;13.54;56.69;102186.03;4965712;28;19918;-71
2023/06/02 07:52:23;;;;;;;;;;;;;;;13.60;56.65;102187.25;4946190;28;19962;-72
2023/06/02 07:54:49;;;;;;;;;;;;;;;13.68;56.41;102191.81;4953917;28;20439;-72
2023/06/02 07:57:14;;;;;;;;;;;;;;;13.72;56.21;102185.97;4958677;28;19927;-73
2023/06/02 07:59:39;;;;;;;;;;;;;;;13.81;56.21;102190.38;4943364;28;19925;-72
2023/06/02 08:02:05;;;;;;;;;;;;;;;13.90;56.08;102189.44;4936394;28;19918;-71
2023/06/02 08:04:30;;;;;;;;;;;;;;;13.99;55.68;102186.78;4951888;28;20403;-71
2023/06/02 08:06:56;;;;;;;;;;;;;;;14.04;55.31;102184.47;4960821;28;19926;-72
2023/06/02 08:09:22;;;;;;;;;;;;;;;14.07;55.22;102184.97;4949264;28;19922;-72
2023/06/02 08:11:48;;;;;;;;;;;;;;;14.13;54.84;102180.81;4952006;28;20384;-72
2023/06/02 08:14:14;;;;;;;;;;;;;;;14.16;54.59;102185.84;4960025;28;20563;-72
2023/06/02 08:16:41;;;;;;;;;;;;;;;14.20;54.61;102182.72;4960875;28;20295;-72
2023/06/02 08:19:06;;;;;;;;;;;;;;;14.22;54.30;102186.06;4943124;28;20515;-72
2023/06/02 08:21:31;;;;;;;;;;;;;;;14.27;54.28;102180.22;4956244;28;20567;-72
2023/06/02 08:23:56;;;;;;;;;;;;;;;14.36;54.04;102181.09;4962826;28;20025;-72
2023/06/02 08:26:22;;;;;;;;;;;;;;;14.44;53.99;102181.13;4947365;28;20403;-72
2023/06/02 08:28:49;;;;;;;;;;;;;;;14.54;53.99;102182.69;4951646;28;19981;-73
2023/06/02 08:31:16;;;;;;;;;;;;;;;14.72;54.09;102185.19;4960334;28;19926;-73
2023/06/02 08:33:42;;;;;;;;;;;;;;;14.95;53.49;102179.22;4957463;28;19930;-73
2023/06/02 08:36:08;;;;;;;;;;;;;;;15.09;52.96;102181.25;4949124;28;19918;-72
2023/06/02 08:38:33;;;;;;;;;;;;;;;15.25;53.28;102183.06;4964736;28;19972;-72
2023/06/02 08:40:58;;;;;;;;;;;;;;;15.47;52.40;102179.69;4951996;28;20279;-72
2023/06/02 08:43:23;;;;;;;;;;;;;;;15.66;52.72;102179.38;4948912;28;19919;-72
2023/06/02 08:45:49;;;;;;;;;;;;;;;15.83;52.48;102181.97;4929933;28;19965;-73
2023/06/02 08:48:18;;;;;;;;;;;;;;;16.01;51.93;102180.75;4949418;28;19919;-72
2023/06/02 08:50:45;;;;;;;;;;;;;;;16.19;51.55;102183.19;4956123;28;19964;-75
2023/06/02 08:53:11;;;;;;;;;;;;;;;16.32;51.46;102179.94;4943000;28;19922;-71
2023/06/02 08:55:39;;;;;;;;;;;;;;;16.50;50.95;102177.00;4954853;28;19918;-72
2023/06/02 08:58:04;;;;;;;;;;;;;;;16.65;50.69;102172.53;4943576;28;19923;-72
2023/06/02 09:00:30;;;;;;;;;;;;;;;16.82;50.33;102171.47;4948971;28;19918;-71
2023/06/02 09:02:55;;;;;;;;;;;;;;;16.92;49.27;102176.56;4945385;28;19927;-71
2023/06/02 09:05:22;;;;;;;;;;;;;;;16.95;48.66;102177.03;4952452;28;19922;-71
2023/06/02 09:07:47;;;;;;;;;;;;;;;17.04;48.71;102170.59;4941102;28;19926;-71
2023/06/02 09:10:31;;;;;;;;;;;;;;;17.30;48.31;102172.88;4947609;28;19922;-71
2023/06/02 09:12:56;;;;;;;;;;;;;;;17.39;47.89;102172.81;4961211;28;19974;-71
2023/06/02 09:15:23;;;;;;;;;;;;;;;17.33;47.84;102174.34;4930416;28;19915;-71
2023/06/02 09:17:48;;;;;;;;;;;;;;;17.24;47.75;102170.09;4943453;28;19925;-71
2023/06/02 09:20:14;;;;;;;;;;;;;;;17.08;47.65;102167.56;4953604;28;20001;-71
2023/06/02 09:22:55;;;;;;;;;;;;;;;16.95;47.96;102181.56;4951449;28;19958;-71
2023/06/02 09:25:21;;;;;;;;;;;;;;;16.86;48.42;102178.13;4953100;28;20006;-71
2023/06/02 09:27:53;;;;;;;;;;;;;;;16.86;48.29;102186.19;4960685;28;19921;-71
2023/06/02 09:30:19;;;;;;;;;;;;;;;16.83;48.57;102175.81;4958171;28;19984;-71
2023/06/02 09:32:53;;;;;;;;;;;;;;;16.78;48.60;102178.19;4953916;28;20392;-71
2023/06/02 09:35:36;;;;;;;;;;;;;;;16.76;48.75;102180.19;4945419;28;19926;-71
2023/06/02 09:38:02;;;;;;;;;;;;;;;16.72;49.53;102169.00;4943510;28;19938;-71
2023/06/02 09:40:28;;;;;;;;;;;;;;;16.84;50.17;102171.28;4942707;28;20009;-71
2023/06/02 09:42:53;;;;;;;;;;;;;;;16.94;49.53;102174.53;4955049;28;20017;-73
2023/06/02 09:45:18;;;;;;;;;;;;;;;17.00;49.04;102169.28;4946915;28;20296;-73
2023/06/02 09:47:44;;;;;;;;;;;;;;;17.06;49.19;102170.44;4950215;28;19918;-73
2023/06/02 09:50:11;;;;;;;;;;;;;;;17.28;48.94;102166.03;4953342;28;19917;-73
2023/06/02 09:52:36;;;;;;;;;;;;;;;17.51;49.00;102174.03;4944070;28;20385;-73
2023/06/02 09:55:01;;;;;;;;;;;;;;;17.51;48.24;102174.03;4946277;28;20436;-73
2023/06/02 09:57:27;;;;;;;;;;;;;;;17.46;48.40;102169.22;4943933;28;19938;-73
2023/06/02 09:59:52;;;;;;;;;;;;;;;17.45;48.25;102170.22;4958836;28;20434;-73
2023/06/02 10:02:18;;;;;;;;;;;;;;;17.37;48.25;102166.81;4962052;28;19950;-73
2023/06/02 10:04:45;;;;;;;;;;;;;;;17.29;48.68;102163.16;4949313;28;20020;-73
2023/06/02 10:07:22;;;;;;;;;;;;;;;17.23;48.70;102158.50;4925713;28;19950;-73
2023/06/02 10:10:06;;;;;;;;;;;;;;;17.45;48.87;102161.34;4949649;28;20334;-74
2023/06/02 10:12:46;;;;;;;;;;;;;;;17.48;49.08;102155.59;4952762;28;19981;-74
2023/06/02 10:15:21;;;;;;;;;;;;;;;17.51;49.25;102163.28;4940783;28;19925;-73
2023/06/02 10:17:52;;;;;;;;;;;;;;;17.56;48.99;102156.34;4940453;28;19919;-73
2023/06/02 10:20:30;;;;;;;;;;;;;;;17.58;48.71;102162.34;4946584;28;20009;-74
2023/06/02 10:23:14;;;;;;;;;;;;;;;17.57;48.70;102160.69;4944683;28;19918;-74
2023/06/02 10:25:47;;;;;;;;;;;;;;;17.57;49.19;102165.22;4948129;28;19964;-72
2023/06/02 10:28:13;;;;;;;;;;;;;;;17.58;49.15;102156.16;4948175;28;19922;-72
2023/06/02 10:30:38;;;;;;;;;;;;;;;17.56;49.11;102155.50;4950423;28;19926;-73
2023/06/02 10:33:03;;;;;;;;;;;;;;;17.51;48.79;102156.06;4942082;28;19929;-72
2023/06/02 10:35:47;;;;;;;;;;;;;;;17.48;49.34;102153.75;4942258;28;19974;-73
2023/06/02 10:38:28;;;;;;;;;;;;;;;17.56;49.57;102167.06;4948479;28;19922;-72
2023/06/02 10:40:54;;;;;;;;;;;;;;;17.73;49.59;102167.78;4945256;28;19925;-72
2023/06/02 10:43:20;;;;;;;;;;;;;;;17.80;49.42;102159.81;4950735;28;19918;-72
2023/06/02 10:45:45;;;;;;;;;;;;;;;17.73;49.30;102167.78;4931837;29;20296;-72
2023/06/02 10:48:29;;;;;;;;;;;;;;;17.67;49.60;102167.66;4952325;28;19925;-72
2023/06/02 10:50:54;;;;;;;;;;;;;;;17.73;49.19;102167.78;4944461;28;19966;-72
2023/06/02 10:53:20;;;;;;;;;;;;;;;17.79;49.43;102166.19;4951817;28;19926;-72
2023/06/02 10:55:45;;;;;;;;;;;;;;;17.83;49.32;102162.13;4950227;28;19918;-72
2023/06/02 10:58:12;;;;;;;;;;;;;;;17.89;49.37;102156.00;4946766;28;20196;-72
2023/06/02 11:00:43;;;;;;;;;;;;;;;17.96;49.10;102159.63;4948635;28;19919;-72
2023/06/02 11:03:14;;;;;;;;;;;;;;;17.99;49.63;102158.41;4956271;28;19921;-72
2023/06/02 11:05:39;;;;;;;;;;;;;;;17.97;49.61;102165.84;4938561;28;20419;-72
2023/06/02 11:08:11;;;;;;;;;;;;;;;18.10;49.63;102171.38;4947142;28;19946;-71
2023/06/02 11:10:40;;;;;;;;;;;;;;;18.25;49.19;102169.50;4938407;28;19925;-72
2023/06/02 11:13:05;;;;;;;;;;;;;;;18.19;48.68;102171.06;4950288;28;19922;-73
2023/06/02 11:15:30;;;;;;;;;;;;;;;18.13;48.94;102154.84;4955016;28;20756;-72
2023/06/02 11:17:56;;;;;;;;;;;;;;;18.05;49.06;102154.97;4946846;28;20001;-72
2023/06/02 11:20:31;;;;;;;;;;;;;;;17.99;49.61;102158.41;4953937;28;19922;-72
2023/06/02 11:23:01;;;;;;;;;;;;;;;18.08;49.62;102162.66;4939317;28;20005;-72
2023/06/02 11:25:26;;;;;;;;;;;;;;;18.14;49.31;102159.22;4952610;28;19915;-72
2023/06/02 11:27:52;;;;;;;;;;;;;;;18.22;49.75;102159.13;4949848;28;20021;-73
2023/06/02 11:30:18;;;;;;;;;;;;;;;18.26;49.64;102150.47;4951447;28;19918;-73
2023/06/02 11:32:45;;;;;;;;;;;;;;;18.34;49.43;102152.22;4942643;28;20050;-73
2023/06/02 11:35:12;;;;;;;;;;;;;;;18.38;49.13;102152.66;4948751;28;19914;-72
2023/06/02 11:37:40;;;;;;;;;;;;;;;18.39;49.13;102157.03;4949387;28;19929;-73
2023/06/02 11:40:05;;;;;;;;;;;;;;;18.41;48.94;102153.13;4949772;28;19915;-73
2023/06/02 11:42:41;;;;;;;;;;;;;;;18.45;49.18;102164.31;4948834;28;20024;-73
2023/06/02 11:45:07;;;;;;;;;;;;;;;18.45;49.12;102165.16;4954212;28;19922;-73
2023/06/02 11:47:32;;;;;;;;;;;;;;;18.49;49.02;102171.00;4953641;28;19937;-73
2023/06/02 11:49:57;;;;;;;;;;;;;;;18.52;48.81;102160.72;4953519;28;20014;-72
2023/06/02 11:52:23;;;;;;;;;;;;;;;18.53;49.18;102157.00;4952901;28;19925;-74
2023/06/02 11:54:50;;;;;;;;;;;;;;;18.59;49.25;102158.06;4943195;28;20376;-73
2023/06/02 11:57:24;;;;;;;;;;;;;;;18.57;49.50;102150.19;4948370;28;20384;-73
2023/06/02 12:00:00;;;;;;;;;;;;;;;18.56;49.43;102156.59;4947676;28;20018;-73
2023/06/02 12:02:26;;;;;;;;;;;;;;;18.64;49.25;102152.16;4951315;28;19919;-72
2023/06/02 12:04:51;;;;;;;;;;;;;;;18.74;49.08;102142.72;4943024;28;20431;-73
2023/06/02 12:07:16;;;;;;;;;;;;;;;18.85;49.00;102144.91;4951289;28;19926;-72
2023/06/02 12:09:47;;;;;;;;;;;;;;;18.90;48.77;102138.13;4956898;28;19937;-72
2023/06/02 12:12:12;;;;;;;;;;;;;;;18.89;49.04;102142.66;4945582;28;19989;-72
2023/06/02 12:14:37;;;;;;;;;;;;;;;18.93;48.99;102146.63;4957790;28;20403;-72
2023/06/02 12:17:02;;;;;;;;;;;;;;;19.03;48.61;102147.13;4956680;28;19949;-73
2023/06/02 12:19:28;;;;;;;;;;;;;;;19.03;48.46;102146.28;4941184;28;20383;-74
2023/06/02 12:22:05;;;;;;;;;;;;;;;19.19;48.85;102154.94;4950690;28;20387;-73
2023/06/02 12:24:31;;;;;;;;;;;;;;;19.37;48.90;102149.06;4949703;28;19940;-73
2023/06/02 12:26:56;;;;;;;;;;;;;;;19.38;47.79;102150.72;4943412;28;20065;-73
2023/06/02 12:29:22;;;;;;;;;;;;;;;19.34;47.88;102149.44;4944252;28;20340;-72
2023/06/02 12:31:54;;;;;;;;;;;;;;;19.49;48.26;102147.47;4946708;28;20612;-69